SEASEATTLE-TACOMA INTL
METARs for airports near SEA, sorted by distance:
N 0 nm 432' KSEA 060453Z 21010KT 10SM OVC011 07/04 A3015
NE 4 nm 32' KRNT 060453Z 19008KT 10SM BKN022 OVC045 08/06 A3015
N 4 nm 21' KBFI 060453Z 17003KT 10SM BKN013 OVC018 07/06 A3016
SW 15 nm 294' KTIW 060453Z 22008KT 10SM BKN014 OVC024 07/04 A3016
W 18 nm 444' KPWT 060456Z 00000KT 10SM OVC006 06/06 A3016
S 19 nm 322' KTCM 060455Z 23011KT 10SM BKN017 OVC041 07/06 A3016
S 20 nm 537' KPLU 290555Z 00000KT 10SM OVC038 05/05 A2978
SW 24 nm 301' KGRF 060455Z 20008KT 10SM BKN020 06/03 A3016
N 27 nm 606' KPAE 060453Z 00000KT 10SM SCT036 OVC055 07/04 A3015
W 36 nm 272' KSHN 060453Z 24011G20KT 10SM FEW012 06/04 A3015
SW 37 nm 207' KOLM 060454Z 24008KT 10SM SCT025 06/03 A3019
N 43 nm 141' KAWO 060514Z 32007KT 10SM -RA FEW017 SCT028 BKN042 07/06 A3017
SW 53 nm 177' KCLS 060535Z 21004KT 10SM OVC035 07/06 A3026
N 55 nm 47' KNUW 060453Z 27016G24KT 10SM BKN035 BKN060 08/06 A3017
NW 60 nm 13' KNOW 060510Z 29015KT 10SM OVC044 08/05 A3016
N 61 nm 145' KBVS 060515Z 00000KT 10SM SCT013 BKN026 OVC065 07/07 A3015
NW 62 nm 291' KCLM 060453Z 29011KT 10SM BKN040 08/03 A3015
NW 70 nm 112' KFHR 060453Z 25004KT 10SM OVC040 07/05 A3013
SW 72 nm 17' KHQM 060453Z 30010KT 10SM FEW030 OVC040 08/04 A3024
E 76 nm 1763' KELN 060453Z 31018KT 10SM CLR 06/01 A2999
N 79 nm 34' KORS 060535Z 18005KT 9SM OVC040 07/07 A3014
N 81 nm 171' KBLI 060453Z 19003KT 10SM SCT060 05/05 A3011
S 83 nm 20' KKLS 060518Z 26005KT 10SM BKN024 OVC033 07/04 A3030
NW 84 nm 64' CYYJ 060500Z 00000KT 20SM SCT042 BKN240 05/05 A3011
E 85 nm 1248' KEAT 060455Z 27006KT 10SM CLR 02/00 A2997
SE 89 nm 1098' KYKM 060453Z 26003KT 5SM BR CLR 01/M01 A3003
W 95 nm 194' KUIL 060453Z 29004KT 10SM BKN025 OVC031 07/03 A3021
TAFs for airports near SEA, sorted by distance:
N 0 nm 432' KSEA KSEA 060529Z 0606/0712 22009KT P6SM VCSH OVC012
  TEMPO 0606/0608 5SM -RA
  FM061200 19011KT P6SM OVC015
  FM062200 19012G18KT P6SM OVC025
  FM070900 20015G25KT P6SM -RA OVC025
N 4 nm 21' KBFI TAF KBFI 060529Z 0606/0706 VRB04KT P6SM VCSH BKN012 OVC020
  TEMPO 0606/0608 5SM -RA OVC012
  FM061200 18009KT P6SM OVC020
  FM062200 17012G18KT P6SM OVC028
W 18 nm 444' KPWT TAF KPWT 060529Z 0606/0706 VRB03KT P6SM OVC005
  FM061600 20012KT P6SM OVC007
  FM062200 20013G22KT P6SM OVC015
S 19 nm 322' KTCM TAF TAF KTCM 060500Z 0605/0711 22010G15KT 9999 OVC015 QNH3015INS
  TEMPO 0605/0607 22012G22KT 510004
  BECMG 0611/0612 20012KT 9000 -SHRA BKN010 OVC015 610409 510102 QNH3035INS
  BECMG 0615/0616 18012G18KT 9999 NSW OVC015 620409 510102 QNH3038INS
  BECMG 0619/0620 21012G22KT 9000 -SHRA BKN015 OVC020 610409 510004 QNH3025INS
  BECMG 0704/0705 18010G15KT 6000 -RA BR OVC020 620609 510103 QNH3020INS
  BECMG 0709/0710 18012KT 9000 -SHRA OVC030 610609 520202 QNH3019INS TX09/0621Z TN05/0612Z
SW 24 nm 301' KGRF TAF TAF KGRF 060500Z 0605/0711 22006KT 9999 SCT010 BKN020 QNH3015INS
  BECMG 0611/0612 20010KT 9999 -SHRA BKN010 OVC030 QNH3035INS
  BECMG 0621/0622 20012G18KT 9999 -SHRA BKN015 OVC030 520002 QNH3036INS TX08/0621Z TN05/0610Z
N 27 nm 606' KPAE KPAE 060529Z 0606/0706 VRB03KT P6SM VCSH BKN030 OVC040
  TEMPO 0606/0608 5SM -RA BKN007
  FM061500 17009KT P6SM OVC012
  FM062200 17015G22KT P6SM OVC020
SW 37 nm 207' KOLM KOLM 060529Z 0606/0706 25008KT P6SM BKN025 OVC040
  FM061400 21005KT 3SM BR VCSH OVC007
  FM061800 20012KT P6SM OVC015
  FM062200 19012G20KT P6SM OVC020
N 55 nm 47' KNUW TAF KNUW 0523/0623 26012G22KT 9999 VCSH SCT010 BKN039 BKN080 OVC120 630405 620909 QNH2985INS
  TEMPO 0523/0605 VRB06KT 9000 -RA BKN009 BKN030
  BECMG 0612/0614 16015G20KT 9999 VCSH SCT030 BKN110 630405 620909 QNH3012INS
  TEMPO 0614/0620 9000 -RA BKN025 T06/0613Z T09/0622Z FS30201
NW 62 nm 291' KCLM KCLM 060529Z 0606/0706 29010KT P6SM OVC040
  FM060900 25006KT P6SM SCT010 OVC030
  FM061300 VRB03KT P6SM VCSH SCT010 OVC030
  FM062200 VRB04KT P6SM VCSH OVC050
SW 72 nm 17' KHQM KHQM 060529Z 0606/0706 30012KT P6SM SCT015 OVC035
  FM061000 26007KT P6SM VCSH OVC012
  FM062100 22014G22KT P6SM OVC020
  FM070500 20015G27KT 6SM -RA OVC012
N 81 nm 171' KBLI KBLI 060529Z 0606/0706 VRB03KT P6SM SCT025 OVC060
  FM061300 16007KT P6SM -RA OVC025
  FM061800 17012G18KT P6SM VCSH OVC015
  FM062200 16015G25KT P6SM OVC030
E 85 nm 1248' KEAT TAF KEAT 052320Z 0600/0624 32006KT P6SM SCT025 BKN080
  FM061500 31005KT P6SM OVC080
  FM062100 25015G22KT P6SM BKN120
SE 89 nm 1098' KYKM KYKM 060521Z 0606/0706 VRB05KT P6SM FEW100
  FM061400 31006KT P6SM BKN100
  FM070200 27005KT P6SM BKN100

Shortcut to this page: http://wxbay.com.

Data may contain errors.